Time;durP1;ratioP1;P1;durP2;ratioP2;P2;SDS_P1;SDS_P2;PMS_P1;PMS_P2;Temp;Humidity;BMP_temperature;BMP_pressure;BME280_temperature;BME280_humidity;BME280_pressure;Samples;Min_cycle;Max_cycle;Signal;HPM_P1;HPM_P2
2023/10/29 00:04:11;;;;;;;2.63;0.70;;;;;;;18.96;47.93;98917.59;16109609;19;130930;-39
2023/10/29 00:09:33;;;;;;;4.07;0.70;;;;;;;18.93;47.57;98877.44;16112970;19;129539;-39
2023/10/29 00:14:55;;;;;;;2.42;0.60;;;;;;;;;;16110516;19;130447;-39
2023/10/29 00:20:17;;;;;;;1.88;0.70;;;;;;;18.90;47.63;98948.13;16108586;19;131032;-39
2023/10/29 00:25:39;;;;;;;3.42;0.55;;;;;;;;;;16111245;19;132003;-39
2023/10/29 00:31:01;;;;;;;2.05;0.50;;;;;;;18.90;47.66;98927.91;16115300;19;129666;-42
2023/10/29 00:36:23;;;;;;;1.88;0.40;;;;;;;18.89;47.80;98931.81;16113939;19;130921;-39
2023/10/29 00:41:45;;;;;;;4.38;0.68;;;;;;;18.87;47.37;98920.19;16114026;19;130828;-39
2023/10/29 00:47:08;;;;;;;1.67;0.47;;;;;;;18.88;47.62;98921.84;16113384;19;131268;-39
2023/10/29 00:52:31;;;;;;;1.15;0.43;;;;;;;18.86;47.67;98907.47;16106449;19;130440;-39
2023/10/29 00:57:53;;;;;;;2.35;0.40;;;;;;;18.85;47.46;98895.56;16113593;19;130350;-39
2023/10/29 01:03:18;;;;;;;1.77;0.50;;;;;;;18.86;47.08;98919.38;16108803;19;131939;-41
2023/10/29 01:08:40;;;;;;;2.13;0.50;;;;;;;18.85;47.56;98909.41;16109878;19;129806;-39
2023/10/29 01:14:03;;;;;;;1.55;0.47;;;;;;;18.85;47.25;98900.25;16111224;19;129912;-39
2023/10/29 01:19:24;;;;;;;1.13;0.50;;;;;;;18.83;47.51;98908.06;16101818;19;129495;-39
2023/10/29 01:24:46;;;;;;;2.35;0.57;;;;;;;18.83;47.27;98908.06;16102731;19;131801;-39
2023/10/29 01:30:09;;;;;;;2.40;0.50;;;;;;;18.81;47.29;98899.22;16105292;19;130144;-39
2023/10/29 01:35:31;;;;;;;1.38;0.43;;;;;;;18.81;47.08;98896.47;16110224;19;131075;-40
2023/10/29 01:40:53;;;;;;;0.70;0.47;;;;;;;18.80;47.33;98903.94;16100492;19;130354;-39
2023/10/29 01:46:14;;;;;;;0.73;0.40;;;;;;;18.80;47.40;98900.34;16109719;19;130364;-39
2023/10/29 01:51:36;;;;;;;1.42;0.55;;;;;;;18.79;47.09;98907.00;16108630;19;133186;-40
2023/10/29 01:56:58;;;;;;;1.05;0.47;;;;;;;18.77;47.44;98910.91;16104263;19;130559;-39
2023/10/29 02:02:20;;;;;;;1.77;0.60;;;;;;;18.77;47.46;98905.34;16108934;19;131301;-39
2023/10/29 02:07:42;;;;;;;0.80;0.40;;;;;;;18.77;46.99;98916.44;16105407;19;129640;-40
2023/10/29 02:13:04;;;;;;;0.88;0.50;;;;;;;18.77;47.24;98904.50;16104359;19;131745;-39
2023/10/29 02:18:26;;;;;;;1.17;0.40;;;;;;;18.77;47.41;98910.06;16099868;19;131287;-39
2023/10/29 02:23:48;;;;;;;0.38;0.20;;;;;;;18.76;47.19;98900.13;16099875;19;132040;-39
2023/10/29 02:29:10;;;;;;;1.88;0.30;;;;;;;18.74;47.09;98900.41;16107578;19;130501;-40
2023/10/29 02:34:32;;;;;;;1.83;0.30;;;;;;;18.74;46.90;98889.31;16102659;19;133894;-40
2023/10/29 02:39:53;;;;;;;0.45;0.20;;;;;;;18.74;47.04;98892.09;16109157;19;130640;-40
2023/10/29 02:45:15;;;;;;;1.45;0.40;;;;;;;18.74;47.07;98888.50;16115719;19;130586;-39
2023/10/29 02:50:38;;;;;;;1.48;0.10;;;;;;;18.73;47.09;98903.47;16117303;19;130818;-39
2023/10/29 02:56:00;;;;;;;1.15;0.25;;;;;;;18.72;47.26;98908.19;16111313;19;131512;-39
2023/10/29 03:01:22;;;;;;;2.20;0.30;;;;;;;18.73;46.74;98915.38;16115958;19;129967;-39
2023/10/29 03:06:44;;;;;;;1.83;0.30;;;;;;;18.72;47.00;98913.72;16114935;19;130981;-39
2023/10/29 03:12:06;;;;;;;2.55;0.28;;;;;;;18.72;46.89;98918.44;16116284;19;130827;-41
2023/10/29 03:17:28;;;;;;;0.90;0.30;;;;;;;18.71;46.77;98917.59;16118927;19;129557;-39
2023/10/29 03:22:50;;;;;;;0.90;0.22;;;;;;;18.70;46.76;98918.75;16114817;19;130135;-40
2023/10/29 03:28:12;;;;;;;4.57;0.35;;;;;;;18.69;47.00;98914.34;16115755;19;131503;-45
2023/10/29 03:33:34;;;;;;;2.47;0.47;;;;;;;18.67;46.98;98908.25;16114093;19;130802;-39
2023/10/29 03:38:56;;;;;;;0.85;0.30;;;;;;;18.68;47.04;98912.69;16115749;19;129917;-39
2023/10/29 03:44:18;;;;;;;1.42;0.38;;;;;;;18.67;46.63;98916.56;16119472;19;130335;-40
2023/10/29 03:49:43;;;;;;;0.60;0.30;;;;;;;18.68;46.58;98922.91;16111138;19;131158;-40
2023/10/29 03:55:05;;;;;;;0.87;0.20;;;;;;;18.67;46.88;98926.81;16108417;19;131879;-39
2023/10/29 04:00:27;;;;;;;1.15;0.38;;;;;;;18.67;46.73;98922.09;16117362;19;130546;-39
2023/10/29 04:05:49;;;;;;;2.58;0.40;;;;;;;18.67;46.93;98924.88;16111858;19;131817;-39
2023/10/29 04:11:11;;;;;;;1.00;0.43;;;;;;;18.66;46.91;98934.31;16111032;19;129842;-39
2023/10/29 04:16:33;;;;;;;1.70;0.40;;;;;;;18.66;46.49;98939.84;16114313;19;129563;-40
2023/10/29 04:21:55;;;;;;;1.92;0.30;;;;;;;18.65;46.64;98956.72;16115079;19;129681;-40
2023/10/29 04:27:18;;;;;;;0.70;0.20;;;;;;;18.65;46.77;98960.34;16109655;19;129993;-40
2023/10/29 04:32:39;;;;;;;0.82;0.30;;;;;;;18.65;46.66;98946.50;16113754;19;129694;-40
2023/10/29 04:38:02;;;;;;;1.20;0.40;;;;;;;18.64;46.92;98933.78;16112331;19;130280;-40
2023/10/29 04:43:24;;;;;;;2.95;0.60;;;;;;;18.64;46.88;98953.16;16112693;19;129016;-40
2023/10/29 04:48:46;;;;;;;2.13;0.52;;;;;;;18.62;46.72;98952.63;16113476;19;131004;-40
2023/10/29 04:54:10;;;;;;;1.25;0.30;;;;;;;18.62;46.80;98972.00;16103116;19;132225;-40
2023/10/29 04:59:32;;;;;;;2.92;0.70;;;;;;;18.61;46.74;99003.59;16108653;19;133055;-40
2023/10/29 05:04:53;;;;;;;0.85;0.30;;;;;;;18.61;46.89;98975.88;16101995;19;130985;-40
2023/10/29 05:10:15;;;;;;;1.40;0.40;;;;;;;18.61;46.67;98995.28;16108664;19;130794;-40
2023/10/29 05:15:38;;;;;;;3.10;0.52;;;;;;;18.61;46.65;98995.28;16103300;19;131225;-40
2023/10/29 05:21:00;;;;;;;2.30;0.68;;;;;;;18.59;46.95;99000.28;16105543;19;129484;-43
2023/10/29 05:26:23;;;;;;;1.80;0.50;;;;;;;18.58;47.05;99020.81;16103491;19;130688;-40
2023/10/29 05:31:45;;;;;;;1.75;0.43;;;;;;;18.57;46.63;99022.75;16105634;19;129575;-40
2023/10/29 05:37:07;;;;;;;2.17;0.43;;;;;;;18.57;46.55;99025.50;16101725;19;132931;-41
2023/10/29 05:42:29;;;;;;;1.73;0.45;;;;;;;18.57;46.77;99033.81;16106421;19;131030;-40
2023/10/29 05:47:51;;;;;;;1.08;0.30;;;;;;;18.57;46.50;99033.00;16105826;19;130600;-40
2023/10/29 05:53:13;;;;;;;3.88;0.70;;;;;;;18.55;46.71;99046.31;16104047;19;130826;-41
2023/10/29 05:58:35;;;;;;;4.28;0.60;;;;;;;18.55;46.63;99063.75;16104848;19;131542;-40
2023/10/29 06:03:57;;;;;;;1.80;0.60;;;;;;;18.54;46.30;99075.13;16108777;19;130817;-39
2023/10/29 06:09:18;;;;;;;8.27;0.90;;;;;;;18.53;46.33;99076.22;16101020;19;129758;-40
2023/10/29 06:14:45;;;;;;;2.85;0.63;;;;;;;18.54;46.59;99091.72;16110790;19;131293;-39
2023/10/29 06:20:10;;;;;;;2.83;0.60;;;;;;;18.53;46.68;99092.84;16114952;19;130687;-39
2023/10/29 06:25:32;;;;;;;2.93;0.80;;;;;;;18.52;46.32;99105.03;16114483;19;130867;-39
2023/10/29 06:30:54;;;;;;;2.85;0.70;;;;;;;18.51;46.02;99112.53;16112035;19;129628;-39
2023/10/29 06:36:16;;;;;;;6.25;0.95;;;;;;;18.52;45.90;99119.72;16123953;19;129838;-40
2023/10/29 06:41:38;;;;;;;7.93;1.13;;;;;;;18.57;45.87;99122.44;16119921;19;130162;-38
2023/10/29 06:47:00;;;;;;;7.68;1.00;;;;;;;18.61;45.87;99136.53;16114266;19;129434;-38
2023/10/29 06:52:22;;;;;;;5.93;1.10;;;;;;;18.65;45.80;99151.47;16119533;19;130623;-39
2023/10/29 06:57:44;;;;;;;13.13;1.33;;;;;;;18.68;45.16;99158.34;16116752;19;130443;-39
2023/10/29 07:03:07;;;;;;;9.48;1.25;;;;;;;18.70;45.26;99176.34;16112657;19;130680;-37
2023/10/29 07:08:29;;;;;;;6.50;1.45;;;;;;;18.75;44.93;99189.34;16116961;19;131412;-39
2023/10/29 07:13:52;;;;;;;12.98;1.38;;;;;;;18.77;45.31;99165.75;16119763;19;130169;-39
2023/10/29 07:19:16;;;;;;;11.82;1.63;;;;;;;18.79;45.22;99207.00;16117601;19;129647;-39
2023/10/29 07:24:38;;;;;;;8.57;1.20;;;;;;;18.78;45.16;99227.50;16116537;19;130303;-39
2023/10/29 07:30:02;;;;;;;4.15;1.25;;;;;;;18.79;45.47;99222.81;16114429;19;129848;-39
2023/10/29 07:35:24;;;;;;;7.57;1.70;;;;;;;18.79;45.06;99247.75;16117363;19;130605;-42
2023/10/29 07:40:46;;;;;;;10.45;1.20;;;;;;;18.80;45.13;99252.19;16115163;19;131484;-39
2023/10/29 07:46:08;;;;;;;5.32;1.10;;;;;;;18.80;45.23;99246.63;16107901;19;131291;-39
2023/10/29 07:51:30;;;;;;;6.78;1.00;;;;;;;18.81;45.18;99237.22;16113213;19;130039;-40
2023/10/29 07:56:53;;;;;;;3.95;0.80;;;;;;;18.83;45.67;99257.16;16115304;19;131583;-40
2023/10/29 08:02:15;;;;;;;5.28;0.93;;;;;;;18.83;45.35;99263.50;16115456;19;130280;-39
2023/10/29 08:07:38;;;;;;;4.63;1.00;;;;;;;18.87;45.30;99272.06;16110764;19;132950;-39
2023/10/29 08:13:00;;;;;;;5.47;1.13;;;;;;;18.88;45.79;99265.41;16109905;19;129543;-43
2023/10/29 08:18:22;;;;;;;7.80;1.25;;;;;;;18.88;45.51;99269.03;16109153;19;130315;-40
2023/10/29 08:23:45;;;;;;;3.55;0.77;;;;;;;21.59;41.28;99270.91;16114489;19;129678;-40
2023/10/29 08:29:07;;;;;;;5.07;1.10;;;;;;;23.54;38.19;99278.88;16112083;19;131496;-40
2023/10/29 08:34:29;;;;;;;4.68;1.13;;;;;;;24.58;36.40;99283.22;16115476;19;130255;-40
2023/10/29 08:39:51;;;;;;;6.03;1.00;;;;;;;24.67;35.71;99310.38;16103847;19;131422;-45
2023/10/29 08:45:12;;;;;;;6.93;1.35;;;;;;;23.14;37.72;99327.03;16103500;19;130968;-40
2023/10/29 08:50:44;;;;;;;3.13;0.90;;;;;;;22.06;39.17;99352.44;16102802;19;131400;-40
2023/10/29 08:56:07;;;;;;;3.67;1.17;;;;;;;21.34;39.99;99343.38;16109101;19;131649;-39
2023/10/29 09:01:30;;;;;;;7.60;1.15;;;;;;;20.83;41.33;99341.38;16110705;19;129152;-40
2023/10/29 09:06:52;;;;;;;10.35;1.40;;;;;;;20.49;41.71;99329.31;16109199;19;131470;-40
2023/10/29 09:12:14;;;;;;;7.72;1.23;;;;;;;20.24;41.87;99336.84;16111581;19;131385;-40
2023/10/29 09:17:36;;;;;;;17.20;7.30;;;;;;;20.04;42.47;99345.41;16111739;19;131859;-40
2023/10/29 09:22:58;;;;;;;32.13;17.27;;;;;;;19.89;42.96;99332.47;16100533;19;133266;-40
2023/10/29 09:28:20;;;;;;;67.80;38.30;;;;;;;19.76;43.01;99328.44;16102386;19;130975;-40
2023/10/29 09:33:44;;;;;;;73.85;41.72;;;;;;;19.64;43.20;99335.22;16102311;19;130668;-42
2023/10/29 09:39:06;;;;;;;68.35;36.63;;;;;;;19.54;43.68;99315.91;16101815;19;130272;-40
2023/10/29 09:44:30;;;;;;;84.60;44.15;;;;;;;19.48;44.27;99303.19;16101822;19;130918;-40
2023/10/29 09:49:56;;;;;;;218.23;107.57;;;;;;;19.43;44.13;99326.25;16103111;19;132207;-40
2023/10/29 09:55:22;;;;;;;308.67;152.07;;;;;;;19.36;44.81;99318.28;16106624;19;129746;-39
2023/10/29 10:00:46;;;;;;;;;;;;;;;19.29;45.38;99297.53;16107999;19;129801;-40
2023/10/29 10:06:11;;;;;;;312.20;150.68;;;;;;;19.28;45.08;99307.81;16100952;19;129290;-40
2023/10/29 10:11:33;;;;;;;312.42;152.68;;;;;;;19.24;45.67;99312.28;16098881;19;131770;-40
2023/10/29 10:17:11;;;;;;;293.42;143.52;;;;;;;19.21;46.33;99321.16;16100483;19;129392;-40
2023/10/29 10:22:37;;;;;;;262.70;128.02;;;;;;;19.16;46.08;99354.47;16099121;19;131681;-40
2023/10/29 10:27:59;;;;;;;;;;;;;;;19.14;46.48;99374.13;16097485;19;132468;-40
2023/10/29 10:33:22;;;;;;;222.07;106.97;;;;;;;19.27;46.13;99389.34;16097889;19;129631;-39
2023/10/29 10:38:53;;;;;;;203.40;97.95;;;;;;;19.36;46.28;99384.81;16097826;19;129711;-40
2023/10/29 10:44:18;;;;;;;184.82;90.70;;;;;;;19.41;46.30;99377.59;16101254;19;131009;-39
2023/10/29 10:49:41;;;;;;;;;;;;;;;19.41;46.02;99363.72;16099084;19;131070;-40
2023/10/29 10:55:04;;;;;;;171.50;79.97;;;;;;;19.43;46.02;99358.72;16099836;19;130039;-40
2023/10/29 11:00:26;;;;;;;159.73;74.38;;;;;;;19.38;46.00;99341.00;16108456;19;131353;-39
2023/10/29 11:05:49;;;;;;;140.80;64.72;;;;;;;19.35;46.48;99324.94;16112009;19;129982;-40
2023/10/29 11:11:12;;;;;;;137.18;60.85;;;;;;;19.32;46.34;99299.75;16106981;19;130487;-38
2023/10/29 11:16:45;;;;;;;115.93;51.80;;;;;;;19.29;46.40;99280.91;16111248;19;130189;-39
2023/10/29 11:22:29;;;;;;;105.15;48.05;;;;;;;19.27;46.48;99272.03;16101801;19;130657;-38
2023/10/29 11:27:51;;;;;;;89.88;41.35;;;;;;;19.22;46.76;99262.69;16117636;19;129785;-39
2023/10/29 11:33:12;;;;;;;82.97;37.13;;;;;;;19.21;46.46;99246.31;16120079;19;133740;-38
2023/10/29 11:38:36;;;;;;;69.85;30.33;;;;;;;19.23;46.70;99252.41;16120297;19;131130;-38
2023/10/29 11:44:28;;;;;;;73.28;25.98;;;;;;;19.26;46.66;99243.50;16117160;19;131481;-38
2023/10/29 11:49:56;;;;;;;59.35;24.08;;;;;;;19.23;47.22;99257.94;16115645;19;132596;-39
2023/10/29 11:55:22;;;;;;;53.30;22.77;;;;;;;19.20;46.92;99286.25;16110694;19;130533;-38
2023/10/29 12:00:44;;;;;;;48.05;20.75;;;;;;;19.16;46.90;99254.66;16109877;19;130309;-39
2023/10/29 12:06:07;;;;;;;54.63;17.63;;;;;;;19.13;46.98;99245.00;16108505;19;130820;-39
2023/10/29 12:11:29;;;;;;;38.90;16.48;;;;;;;19.13;46.90;99260.78;16105261;19;129678;-38
2023/10/29 12:16:51;;;;;;;38.15;15.25;;;;;;;19.13;46.71;99260.78;16110394;19;131677;-37
2023/10/29 12:22:16;;;;;;;33.55;13.95;;;;;;;19.14;46.43;99260.47;16110483;19;131549;-39
2023/10/29 12:27:43;;;;;;;38.60;13.30;;;;;;;19.15;46.32;99262.13;16108679;19;130850;-38
2023/10/29 12:33:29;;;;;;;32.10;12.20;;;;;;;19.23;46.65;99244.09;16114898;19;130799;-38
2023/10/29 12:38:52;;;;;;;32.13;11.35;;;;;;;19.26;45.95;99235.19;16115365;19;130061;-39
2023/10/29 12:44:17;;;;;;;23.52;9.15;;;;;;;19.31;45.98;99231.53;16112086;19;129432;-39
2023/10/29 12:49:39;;;;;;;20.90;7.13;;;;;;;19.32;45.66;99224.88;16110697;19;129783;-40
2023/10/29 12:55:07;;;;;;;26.25;7.53;;;;;;;19.34;45.42;99201.28;16109881;19;130054;-38
2023/10/29 13:00:30;;;;;;;17.08;6.40;;;;;;;19.34;45.38;99220.69;16106736;19;131964;-38
2023/10/29 13:05:54;;;;;;;18.85;5.63;;;;;;;19.36;45.24;99198.22;16109780;19;130882;-42
2023/10/29 13:11:16;;;;;;;18.48;5.30;;;;;;;19.37;45.31;99178.50;16108314;19;130552;-43
2023/10/29 13:16:39;;;;;;;16.67;4.95;;;;;;;19.41;45.43;99184.28;16105968;19;129449;-41
2023/10/29 13:22:02;;;;;;;15.38;5.30;;;;;;;19.42;45.52;99172.06;16106919;19;131624;-43
2023/10/29 13:27:25;;;;;;;13.57;4.60;;;;;;;19.42;45.08;99158.22;16106669;19;130555;-39
2023/10/29 13:32:48;;;;;;;14.27;4.20;;;;;;;19.43;45.16;99142.41;16114078;19;131648;-43
2023/10/29 13:38:10;;;;;;;10.73;3.65;;;;;;;19.43;45.48;99125.78;16114071;19;130787;-42
2023/10/29 13:43:32;;;;;;;9.82;3.85;;;;;;;19.43;45.50;99131.31;16114709;19;131171;-43
2023/10/29 13:48:54;;;;;;;7.70;3.13;;;;;;;19.42;45.45;99129.66;16105702;19;130975;-44
2023/10/29 13:54:16;;;;;;;20.30;4.68;;;;;;;19.38;45.71;99180.16;16097962;19;130424;-43
2023/10/29 13:59:38;;;;;;;24.95;3.85;;;;;;;19.38;45.52;99162.72;16103092;19;129744;-42
2023/10/29 14:05:00;;;;;;;21.75;3.95;;;;;;;19.42;45.37;99168.50;16106426;19;129536;-42
2023/10/29 14:10:23;;;;;;;19.70;4.63;;;;;;;19.45;45.35;99140.16;16101291;19;136113;-39
2023/10/29 14:15:45;;;;;;;54.45;10.25;;;;;;;19.49;45.56;99144.00;16105298;19;129554;-38
2023/10/29 14:21:07;;;;;;;52.67;15.57;;;;;;;19.49;45.95;99147.59;16101165;19;129858;-38
2023/10/29 14:26:30;;;;;;;62.38;18.10;;;;;;;19.54;46.09;99143.94;16102946;19;130732;-39
2023/10/29 14:31:53;;;;;;;58.47;17.75;;;;;;;19.57;46.14;99143.31;16102488;19;131505;-38
2023/10/29 14:37:16;;;;;;;59.30;17.77;;;;;;;19.58;45.97;99149.72;16109632;19;129936;-39
2023/10/29 14:42:38;;;;;;;52.20;13.60;;;;;;;19.65;45.97;99139.91;16118875;19;129940;-39
2023/10/29 14:48:01;;;;;;;45.85;13.23;;;;;;;19.85;45.76;99132.44;16107921;19;131468;-39
2023/10/29 14:53:23;;;;;;;37.97;10.98;;;;;;;19.86;45.92;99133.28;16115993;19;130208;-39
2023/10/29 14:58:45;;;;;;;35.75;10.15;;;;;;;19.84;45.77;99152.97;16117855;19;131178;-39
2023/10/29 15:04:07;;;;;;;35.00;10.35;;;;;;;19.84;45.98;99150.19;16118128;19;129714;-39
2023/10/29 15:09:29;;;;;;;34.90;9.23;;;;;;;19.85;45.87;99151.84;16116934;19;131543;-38
2023/10/29 15:14:51;;;;;;;29.60;7.85;;;;;;;19.87;45.85;99151.59;16117046;19;129722;-38
2023/10/29 15:20:13;;;;;;;30.23;8.27;;;;;;;19.88;46.08;99156.81;16116030;19;130266;-39
2023/10/29 15:25:35;;;;;;;26.67;6.88;;;;;;;19.91;45.88;99159.00;16116998;19;129533;-39
2023/10/29 15:31:14;;;;;;;29.98;7.10;;;;;;;19.97;45.89;99163.34;16113149;19;132132;-38
2023/10/29 15:36:36;;;;;;;28.48;6.28;;;;;;;19.95;46.26;99162.81;16118176;19;131113;-39
2023/10/29 15:41:59;;;;;;;19.60;5.43;;;;;;;19.97;46.29;99163.34;16113799;19;130325;-41
2023/10/29 15:47:26;;;;;;;21.70;6.07;;;;;;;19.99;46.12;99155.59;16112651;19;133400;-39
2023/10/29 15:52:48;;;;;;;24.38;5.32;;;;;;;20.01;46.08;99163.59;16114274;19;130241;-40
2023/10/29 15:58:10;;;;;;;17.67;4.70;;;;;;;20.01;45.99;99169.16;16117307;19;130936;-39
2023/10/29 16:03:32;;;;;;;15.65;4.65;;;;;;;20.03;45.91;99157.78;16113882;19;129609;-40
2023/10/29 16:08:54;;;;;;;18.52;4.40;;;;;;;20.02;46.32;99154.16;16112370;19;131098;-39
2023/10/29 16:14:16;;;;;;;14.93;3.53;;;;;;;20.04;46.28;99157.47;16108613;19;134076;-40
2023/10/29 16:19:38;;;;;;;16.27;3.75;;;;;;;20.04;46.31;99174.13;16103904;19;130930;-40
2023/10/29 16:25:01;;;;;;;14.35;3.58;;;;;;;20.10;45.79;99186.81;16112947;19;130176;-40
2023/10/29 16:30:25;;;;;;;14.35;3.10;;;;;;;20.22;45.70;99185.53;16112115;19;131651;-39
2023/10/29 16:35:47;;;;;;;10.40;3.28;;;;;;;20.41;46.02;99216.09;16109291;19;130559;-40
2023/10/29 16:41:16;;;;;;;17.08;2.92;;;;;;;20.56;45.63;99226.97;16103844;19;129983;-39
2023/10/29 16:46:38;;;;;;;8.10;2.25;;;;;;;20.66;44.96;99245.44;16109549;19;136259;-38
2023/10/29 16:52:00;;;;;;;11.27;2.22;;;;;;;20.72;44.96;99260.06;16112881;19;131416;-38
2023/10/29 16:57:22;;;;;;;8.10;2.40;;;;;;;20.71;45.14;99267.59;16111891;19;131801;-37
2023/10/29 17:02:46;;;;;;;10.75;2.00;;;;;;;20.67;45.22;99269.31;16112759;19;130873;-41
2023/10/29 17:08:08;;;;;;;10.88;2.13;;;;;;;20.63;45.18;99270.22;16110714;19;129579;-40
2023/10/29 17:13:30;;;;;;;10.48;2.08;;;;;;;20.55;45.25;99297.56;16102801;19;130542;-39
2023/10/29 17:18:52;;;;;;;12.98;2.40;;;;;;;20.47;45.19;99301.00;16101600;19;130646;-39
2023/10/29 17:24:14;;;;;;;6.93;1.70;;;;;;;20.41;44.94;99313.31;16097605;19;130104;-39
2023/10/29 17:29:36;;;;;;;12.43;2.28;;;;;;;20.36;45.20;99332.81;16103338;19;130839;-39
2023/10/29 17:34:59;;;;;;;7.38;2.80;;;;;;;20.28;44.83;99346.25;16104977;19;131010;-39
2023/10/29 17:40:22;;;;;;;10.63;2.40;;;;;;;20.28;44.75;99368.47;16098019;19;130396;-39
2023/10/29 17:45:45;;;;;;;10.55;3.40;;;;;;;20.32;44.82;99381.72;16089270;19;133669;-39
2023/10/29 17:51:07;;;;;;;13.73;4.72;;;;;;;20.37;44.51;99401.13;16099667;19;129733;-39
2023/10/29 17:56:29;;;;;;;12.73;5.82;;;;;;;20.40;44.57;99406.09;16109325;19;130475;-39
2023/10/29 18:01:52;;;;;;;17.58;7.30;;;;;;;20.44;44.24;99429.34;16103752;19;131068;-39
2023/10/29 18:07:13;;;;;;;12.90;8.68;;;;;;;20.47;44.61;99441.84;16102010;19;130732;-39
2023/10/29 18:12:36;;;;;;;18.10;9.02;;;;;;;20.49;44.28;99454.31;16118705;19;131432;-39
2023/10/29 18:17:58;;;;;;;14.18;8.40;;;;;;;20.53;43.89;99463.72;16119612;19;135105;-40
2023/10/29 18:23:20;;;;;;;17.25;8.07;;;;;;;20.56;44.00;99468.66;16108309;19;132219;-39
2023/10/29 18:28:42;;;;;;;13.85;8.43;;;;;;;20.60;43.84;99485.59;16108539;19;133575;-40
2023/10/29 18:34:04;;;;;;;28.25;8.55;;;;;;;20.61;43.94;99484.47;16117962;19;130727;-40
2023/10/29 18:39:26;;;;;;;23.83;8.07;;;;;;;20.67;43.84;99499.13;16118204;19;131589;-38
2023/10/29 18:44:48;;;;;;;23.75;7.43;;;;;;;20.71;43.85;99505.75;16119869;19;130061;-39
2023/10/29 18:50:10;;;;;;;26.95;8.30;;;;;;;20.77;43.90;99512.94;16120843;19;130260;-39
2023/10/29 18:55:34;;;;;;;30.83;8.05;;;;;;;20.82;43.78;99521.22;16121245;19;129994;-39
2023/10/29 19:01:11;;;;;;;30.58;7.60;;;;;;;20.87;43.85;99518.38;16115898;19;129909;-39
2023/10/29 19:06:33;;;;;;;28.73;6.45;;;;;;;20.88;44.08;99522.81;16116169;19;130361;-39
2023/10/29 19:11:55;;;;;;;130.02;14.95;;;;;;;20.85;44.17;99537.31;16113817;19;130915;-39
2023/10/29 19:17:17;;;;;;;55.00;8.52;;;;;;;20.82;44.91;99549.00;16110747;19;130431;-39
2023/10/29 19:22:39;;;;;;;49.00;8.52;;;;;;;20.83;45.20;99542.31;16108499;19;131153;-39
2023/10/29 19:28:01;;;;;;;46.85;7.38;;;;;;;20.86;45.79;99566.75;16109807;19;130570;-40
2023/10/29 19:33:23;;;;;;;41.90;6.68;;;;;;;20.92;45.75;99572.28;16113301;19;131416;-39
2023/10/29 19:38:45;;;;;;;33.65;6.00;;;;;;;20.93;46.64;99582.25;16111151;19;129552;-39
2023/10/29 19:44:07;;;;;;;29.15;5.78;;;;;;;20.96;46.74;99598.34;16109618;19;129630;-38
2023/10/29 19:49:29;;;;;;;38.47;5.70;;;;;;;20.98;47.10;99602.50;16117756;19;129527;-38
2023/10/29 19:54:55;;;;;;;44.10;5.93;;;;;;;21.00;47.63;99614.13;16114195;19;130817;-38
2023/10/29 20:00:19;;;;;;;40.22;5.28;;;;;;;21.02;47.76;99614.69;16110691;19;129224;-39
2023/10/29 20:05:41;;;;;;;28.40;4.75;;;;;;;21.06;48.15;99628.81;16111325;19;130020;-38
2023/10/29 20:11:11;;;;;;;30.05;4.43;;;;;;;21.09;48.15;99628.22;16109765;19;131091;-38
2023/10/29 20:16:33;;;;;;;22.40;4.68;;;;;;;21.10;48.35;99643.78;16109745;19;130604;-38
2023/10/29 20:21:55;;;;;;;37.30;4.20;;;;;;;21.11;48.53;99648.25;16110814;19;131210;-39
2023/10/29 20:27:17;;;;;;;29.52;3.78;;;;;;;21.11;48.83;99645.47;16115343;19;129683;-39
2023/10/29 20:32:40;;;;;;;18.80;3.65;;;;;;;21.12;48.50;99658.25;16110074;19;129736;-39
2023/10/29 20:38:02;;;;;;;22.60;2.95;;;;;;;21.12;48.63;99669.38;16111202;19;129671;-38
2023/10/29 20:43:24;;;;;;;23.40;3.38;;;;;;;21.13;48.96;99671.03;16107866;19;131689;-38
2023/10/29 20:48:46;;;;;;;21.73;3.28;;;;;;;21.19;48.88;99669.00;16107941;19;130881;-38
2023/10/29 20:54:09;;;;;;;14.30;2.58;;;;;;;21.37;48.72;99671.03;16107059;19;129557;-38
2023/10/29 20:59:31;;;;;;;16.08;2.90;;;;;;;21.61;48.29;99673.00;16107821;19;130449;-40
2023/10/29 21:04:53;;;;;;;17.33;3.03;;;;;;;21.84;48.64;99681.66;16108755;19;134361;-38
2023/10/29 21:10:15;;;;;;;23.15;3.33;;;;;;;21.98;48.17;99687.28;16097294;19;132508;-38
2023/10/29 21:15:40;;;;;;;31.42;3.33;;;;;;;22.00;47.82;99693.41;16094685;19;130966;-39
2023/10/29 21:21:03;;;;;;;13.23;2.90;;;;;;;21.92;47.79;99705.19;16099845;19;130659;-40
2023/10/29 21:26:25;;;;;;;16.05;2.72;;;;;;;21.79;48.02;99713.13;16103428;19;130415;-39
2023/10/29 21:31:47;;;;;;;17.38;2.88;;;;;;;21.66;48.41;99714.69;16106135;19;129428;-41
2023/10/29 21:37:09;;;;;;;13.32;2.35;;;;;;;21.52;48.16;99720.16;16102456;19;130513;-39
2023/10/29 21:42:31;;;;;;;12.35;2.45;;;;;;;21.40;49.00;99724.41;16106975;19;130859;-39
2023/10/29 21:47:53;;;;;;;11.95;2.55;;;;;;;21.27;48.76;99731.53;16099901;19;136150;-39
2023/10/29 21:53:15;;;;;;;14.30;2.13;;;;;;;21.14;48.83;99725.53;16103561;19;130517;-39
2023/10/29 21:58:40;;;;;;;14.70;1.87;;;;;;;21.02;49.20;99736.19;16108815;19;131498;-39
2023/10/29 22:04:02;;;;;;;13.10;2.40;;;;;;;20.89;49.20;99730.19;16107356;19;130872;-39
2023/10/29 22:09:24;;;;;;;12.52;2.30;;;;;;;20.80;49.47;99731.91;16107780;19;129529;-39
2023/10/29 22:14:46;;;;;;;12.52;2.03;;;;;;;20.71;49.58;99728.06;16106593;19;130662;-39
2023/10/29 22:20:09;;;;;;;10.15;1.98;;;;;;;20.65;49.71;99715.34;16093967;19;131888;-41
2023/10/29 22:25:30;;;;;;;7.95;1.73;;;;;;;20.59;49.84;99722.91;16098711;19;131487;-39
2023/10/29 22:30:56;;;;;;;10.68;1.85;;;;;;;20.52;49.96;99733.47;16102944;19;130859;-39
2023/10/29 22:36:18;;;;;;;11.55;2.03;;;;;;;20.47;49.97;99728.78;16101476;19;131531;-40
2023/10/29 22:41:40;;;;;;;10.35;2.00;;;;;;;20.39;49.67;99729.41;16099223;19;130120;-39
2023/10/29 22:47:02;;;;;;;5.43;1.70;;;;;;;20.34;50.12;99744.16;16103520;19;131007;-39
2023/10/29 22:52:24;;;;;;;7.65;1.98;;;;;;;20.31;49.80;99743.91;16102192;19;130780;-39
2023/10/29 22:57:48;;;;;;;12.93;1.77;;;;;;;20.24;50.28;99758.13;16110986;19;130720;-40
2023/10/29 23:03:10;;;;;;;7.32;1.83;;;;;;;20.18;50.01;99765.66;16117371;19;131056;-38
2023/10/29 23:08:33;;;;;;;10.55;1.92;;;;;;;20.13;50.14;99760.91;16120595;19;129344;-39
2023/10/29 23:13:55;;;;;;;8.70;1.80;;;;;;;20.09;50.21;99762.63;16105862;19;131260;-40
2023/10/29 23:19:17;;;;;;;7.90;2.10;;;;;;;20.05;50.04;99769.03;16107826;19;130404;-39
2023/10/29 23:24:38;;;;;;;5.93;1.90;;;;;;;20.03;50.12;99765.72;16108622;19;130430;-39
2023/10/29 23:30:01;;;;;;;9.93;1.77;;;;;;;19.98;50.27;99766.53;16112982;19;130859;-40
2023/10/29 23:35:23;;;;;;;6.80;1.42;;;;;;;19.94;49.92;99760.69;16106556;19;130773;-39
2023/10/29 23:40:45;;;;;;;6.50;1.70;;;;;;;19.92;50.07;99751.00;16108807;19;131138;-39
2023/10/29 23:46:06;;;;;;;6.03;1.70;;;;;;;19.87;50.11;99751.84;16106675;19;130332;-39
2023/10/29 23:51:28;;;;;;;7.07;1.83;;;;;;;19.87;49.92;99764.91;16110976;19;129826;-39
2023/10/29 23:56:50;;;;;;;7.68;1.90;;;;;;;19.84;49.86;99758.81;16109017;19;130361;-40
